createdAt,value
2023-03-28T00:01:44.238Z,5.10
2023-03-28T00:03:46.834Z,5.45
2023-03-28T00:05:55.632Z,5.15
2023-03-28T00:08:00.157Z,4.50
2023-03-28T00:10:04.322Z,5.30
2023-03-28T00:12:07.114Z,5.25
2023-03-28T00:14:09.807Z,4.80
2023-03-28T00:16:13.580Z,5.38
2023-03-28T00:18:16.726Z,4.93
2023-03-28T00:20:20.062Z,5.18
2023-03-28T00:22:22.930Z,5.43
2023-03-28T00:24:26.385Z,5.65
2023-03-28T00:26:32.646Z,5.15
2023-03-28T00:28:35.400Z,4.97
2023-03-28T00:30:38.070Z,5.32
2023-03-28T00:32:40.547Z,5.05
2023-03-28T00:34:42.945Z,5.45
2023-03-28T00:36:45.587Z,6.03
2023-03-28T00:38:50.355Z,5.28
2023-03-28T00:40:56.558Z,4.93
2023-03-28T00:42:59.527Z,5.07
2023-03-28T00:45:02.219Z,4.63
2023-03-28T00:47:05.566Z,5.05
2023-03-28T00:49:25.249Z,5.45
2023-03-28T00:51:32.326Z,5.03
2023-03-28T00:53:35.898Z,5.22
2023-03-28T00:55:42.727Z,5.85
2023-03-28T00:57:46.957Z,5.55
2023-03-28T00:59:49.665Z,5.18
2023-03-28T01:01:54.115Z,5.13
2023-03-28T01:04:05.805Z,5.45
2023-03-28T01:06:09.943Z,5.40
2023-03-28T01:08:22.235Z,5.80
2023-03-28T01:10:24.822Z,5.40
2023-03-28T01:12:27.382Z,5.18
2023-03-28T01:14:30.896Z,5.95
2023-03-28T01:16:41.603Z,5.18
2023-03-28T01:18:52.154Z,5.32
2023-03-28T01:21:06.536Z,5.13
2023-03-28T01:23:27.220Z,5.05
2023-03-28T01:26:03.464Z,4.18
2023-03-28T01:28:41.541Z,3.83
2023-03-28T01:31:27.653Z,4.97
2023-03-28T01:34:21.636Z,3.97
2023-03-28T01:36:54.439Z,4.72
2023-03-28T01:39:14.460Z,3.72
2023-03-28T01:41:42.498Z,3.53
2023-03-28T01:43:55.063Z,3.85
2023-03-28T01:46:12.409Z,3.90
2023-03-28T01:48:27.148Z,3.78
2023-03-28T01:50:37.164Z,3.10
2023-03-28T01:53:21.854Z,4.38
2023-03-28T01:56:03.269Z,3.80
2023-03-28T01:58:21.666Z,2.95
2023-03-28T02:00:37.252Z,3.05
2023-03-28T02:02:51.362Z,3.85
2023-03-28T02:05:05.358Z,3.50
2023-03-28T02:07:13.805Z,4.15
2023-03-28T02:09:38.284Z,3.13
2023-03-28T02:12:11.013Z,3.63
2023-03-28T02:14:37.726Z,2.97
2023-03-28T02:17:15.885Z,3.35
2023-03-28T02:19:44.889Z,3.80
2023-03-28T02:22:25.673Z,3.78
2023-03-28T02:25:04.396Z,3.17
2023-03-28T02:27:35.302Z,3.15
2023-03-28T02:29:58.297Z,3.40
2023-03-28T02:32:09.477Z,2.90
2023-03-28T02:34:11.841Z,3.70
2023-03-28T02:36:51.874Z,3.50
2023-03-28T02:39:23.265Z,3.05
2023-03-28T02:41:38.421Z,3.75
2023-03-28T02:44:01.144Z,3.38
2023-03-28T02:46:24.002Z,3.00
2023-03-28T02:48:35.004Z,3.40
2023-03-28T02:50:57.913Z,3.47
2023-03-28T02:53:17.932Z,2.88
2023-03-28T02:55:40.670Z,3.10
2023-03-28T02:58:23.646Z,2.92
2023-03-28T03:00:26.490Z,2.92
2023-03-28T03:02:29.434Z,3.53
2023-03-28T03:04:31.980Z,4.32
2023-03-28T03:06:37.970Z,2.95
2023-03-28T03:08:40.811Z,3.45
2023-03-28T03:10:43.463Z,2.65
2023-03-28T03:12:46.098Z,3.15
2023-03-28T03:14:51.545Z,2.88
2023-03-28T03:17:14.795Z,2.95
2023-03-28T03:19:19.500Z,2.75
2023-03-28T03:21:23.909Z,3.13
2023-03-28T03:23:26.685Z,2.85
2023-03-28T03:25:32.628Z,3.60
2023-03-28T03:28:02.695Z,3.58
2023-03-28T03:30:06.678Z,3.45
2023-03-28T03:32:28.334Z,4.05
2023-03-28T03:34:38.376Z,3.58
2023-03-28T03:36:41.063Z,3.08
2023-03-28T03:38:43.737Z,3.00
2023-03-28T03:40:50.962Z,3.42
2023-03-28T03:42:53.874Z,4.18
2023-03-28T03:44:56.638Z,4.28
2023-03-28T03:46:59.830Z,3.88
2023-03-28T03:49:04.129Z,4.22
2023-03-28T03:51:08.017Z,3.60
2023-03-28T03:53:11.408Z,4.10
2023-03-28T03:55:21.019Z,3.50
2023-03-28T03:57:23.470Z,3.38
2023-03-28T03:59:33.655Z,3.20
2023-03-28T04:01:36.129Z,3.78
2023-03-28T04:04:08.133Z,3.42
2023-03-28T04:06:30.075Z,4.22
2023-03-28T04:08:33.156Z,3.70
2023-03-28T04:10:36.319Z,3.83
2023-03-28T04:12:38.934Z,3.75
2023-03-28T04:14:41.616Z,3.22
2023-03-28T04:17:07.114Z,3.75
2023-03-28T04:19:11.345Z,3.15
2023-03-28T04:21:17.551Z,3.00
2023-03-28T04:23:20.817Z,3.45
2023-03-28T04:25:25.631Z,3.38
2023-03-28T04:27:31.570Z,3.85
2023-03-28T04:29:34.334Z,3.08
2023-03-28T04:31:57.466Z,3.42
2023-03-28T04:34:31.092Z,3.20
2023-03-28T04:36:42.187Z,2.80
2023-03-28T04:38:46.512Z,3.78
2023-03-28T04:41:18.333Z,4.45
2023-03-28T04:43:53.221Z,3.83
2023-03-28T04:45:56.855Z,3.20
2023-03-28T04:47:59.466Z,3.78
2023-03-28T04:50:01.901Z,3.35
2023-03-28T04:52:09.059Z,3.33
2023-03-28T04:54:11.734Z,3.22
2023-03-28T04:56:23.976Z,3.42
2023-03-28T04:58:26.778Z,3.13
2023-03-28T05:00:30.248Z,3.47
2023-03-28T05:03:06.793Z,3.65
2023-03-28T05:05:16.752Z,3.33
2023-03-28T05:07:19.479Z,3.17
2023-03-28T05:09:23.320Z,3.92
2023-03-28T05:11:25.949Z,3.30
2023-03-28T05:13:28.842Z,3.13
2023-03-28T05:15:47.497Z,2.90
2023-03-28T05:18:09.173Z,3.10
2023-03-28T05:20:12.613Z,3.47
2023-03-28T05:22:23.781Z,3.78
2023-03-28T05:24:27.253Z,3.20
2023-03-28T05:26:31.322Z,2.90
2023-03-28T05:28:33.616Z,3.80
2023-03-28T05:30:36.048Z,3.15
2023-03-28T05:32:39.627Z,4.10
2023-03-28T05:34:45.863Z,4.22
2023-03-28T05:36:48.802Z,4.20
2023-03-28T05:38:59.568Z,3.63
2023-03-28T05:41:03.512Z,3.80
2023-03-28T05:43:06.578Z,3.90
2023-03-28T05:45:13.100Z,4.07
2023-03-28T05:47:27.604Z,3.50
2023-03-28T05:49:30.030Z,3.63
2023-03-28T05:51:32.580Z,3.47
2023-03-28T05:53:35.092Z,3.17
2023-03-28T05:55:37.713Z,3.80
2023-03-28T05:57:41.220Z,3.05
2023-03-28T05:59:43.597Z,2.78
2023-03-28T06:01:49.119Z,3.22
2023-03-28T06:03:51.927Z,2.97
2023-03-28T06:05:54.498Z,2.30
2023-03-28T06:08:00.112Z,2.40
2023-03-28T06:10:06.452Z,2.75
2023-03-28T06:12:09.560Z,2.15
2023-03-28T06:14:16.957Z,1.90
2023-03-28T06:16:19.619Z,1.50
2023-03-28T06:18:34.949Z,1.70
2023-03-28T06:20:39.677Z,2.08
2023-03-28T06:22:42.200Z,2.13
2023-03-28T06:24:47.242Z,1.95
2023-03-28T06:26:50.090Z,1.90
2023-03-28T06:28:56.896Z,2.28
2023-03-28T06:31:11.740Z,1.98
2023-03-28T06:33:14.433Z,2.10
2023-03-28T06:35:18.876Z,1.45
2023-03-28T06:37:21.922Z,1.30
2023-03-28T06:39:53.201Z,1.40
2023-03-28T06:41:55.843Z,1.20
2023-03-28T06:44:06.062Z,1.75
2023-03-28T06:46:26.785Z,1.50
2023-03-28T06:48:34.238Z,1.88
2023-03-28T06:50:51.056Z,1.77
2023-03-28T06:52:56.156Z,1.98
2023-03-28T06:54:59.436Z,2.92
2023-03-28T06:57:02.078Z,3.53
2023-03-28T06:59:05.683Z,9.75
2023-03-28T07:01:09.270Z,2.50
2023-03-28T07:03:18.477Z,5.07
2023-03-28T07:05:21.385Z,25.38
2023-03-28T07:07:24.469Z,14.82
2023-03-28T07:09:27.548Z,7.38
2023-03-28T07:11:36.437Z,9.90
2023-03-28T07:13:38.991Z,2.50
2023-03-28T07:15:44.672Z,5.20
2023-03-28T07:17:47.711Z,3.38
2023-03-28T07:19:51.650Z,2.85
2023-03-28T07:21:54.214Z,2.88
2023-03-28T07:23:58.092Z,2.30
2023-03-28T07:26:04.461Z,2.28
2023-03-28T07:28:07.947Z,1.88
2023-03-28T07:30:13.451Z,3.13
2023-03-28T07:32:16.702Z,2.85
2023-03-28T07:34:21.303Z,2.95
2023-03-28T07:36:26.656Z,1.92
2023-03-28T07:38:32.989Z,2.33
2023-03-28T07:40:36.088Z,2.67
2023-03-28T07:42:39.567Z,2.78
2023-03-28T07:44:42.968Z,2.35
2023-03-28T07:46:46.864Z,2.35
2023-03-28T07:48:50.901Z,2.83
2023-03-28T07:50:53.737Z,2.17
2023-03-28T07:53:01.215Z,2.20
2023-03-28T07:55:07.799Z,2.03
2023-03-28T07:57:14.149Z,2.28
2023-03-28T07:59:38.593Z,2.53
2023-03-28T08:01:43.543Z,2.15
2023-03-28T08:03:46.651Z,2.40
2023-03-28T08:05:52.485Z,2.10
2023-03-28T08:07:59.711Z,1.92
2023-03-28T08:12:08.180Z,1.95
2023-03-28T08:14:14.231Z,2.28
2023-03-28T08:16:16.992Z,2.00
2023-03-28T08:18:21.420Z,1.90
2023-03-28T08:20:24.372Z,1.80
2023-03-28T08:22:36.721Z,2.25
2023-03-28T08:24:58.381Z,1.80
2023-03-28T08:27:01.163Z,2.17
2023-03-28T08:29:05.233Z,1.85
2023-03-28T08:31:14.694Z,2.17
2023-03-28T08:33:19.168Z,2.00
2023-03-28T08:35:21.669Z,1.90
2023-03-28T08:37:28.744Z,1.92
2023-03-28T08:39:35.242Z,2.00
2023-03-28T08:41:57.658Z,2.00
2023-03-28T08:44:27.927Z,1.58
2023-03-28T08:46:35.929Z,2.25
2023-03-28T08:48:46.746Z,2.22
2023-03-28T08:50:58.992Z,2.65
2023-03-28T08:53:04.332Z,2.03
2023-03-28T08:55:28.572Z,1.90
2023-03-28T08:57:34.844Z,1.60
2023-03-28T08:59:49.652Z,1.90
2023-03-28T09:01:53.239Z,1.88
2023-03-28T09:03:56.789Z,1.40
2023-03-28T09:06:14.661Z,1.80
2023-03-28T09:08:42.586Z,1.83
2023-03-28T09:10:58.294Z,1.80
2023-03-28T09:13:23.112Z,2.00
2023-03-28T09:15:37.865Z,2.08
2023-03-28T09:17:59.417Z,1.52
2023-03-28T09:20:31.309Z,1.42
2023-03-28T09:22:58.290Z,1.50
2023-03-28T09:25:30.292Z,2.33
2023-03-28T09:27:38.276Z,1.80
2023-03-28T09:29:46.703Z,2.13
2023-03-28T09:31:55.069Z,1.70
2023-03-28T09:34:01.002Z,1.67
2023-03-28T09:36:14.723Z,1.85
2023-03-28T09:38:47.884Z,1.80
2023-03-28T09:40:55.977Z,2.00
2023-03-28T09:43:29.206Z,2.20
2023-03-28T09:46:09.538Z,1.77
2023-03-28T09:48:29.667Z,2.42
2023-03-28T09:50:35.405Z,2.08
2023-03-28T09:52:38.462Z,1.75
2023-03-28T09:54:42.750Z,1.80
2023-03-28T09:56:47.407Z,1.70
2023-03-28T09:59:31.908Z,1.73
2023-03-28T10:01:47.705Z,1.60
2023-03-28T10:04:14.645Z,1.70
2023-03-28T10:06:46.324Z,2.40
2023-03-28T10:08:49.392Z,2.22
2023-03-28T10:11:03.578Z,1.95
2023-03-28T10:13:06.587Z,1.85
2023-03-28T10:15:32.756Z,1.60
2023-03-28T10:17:54.439Z,1.65
2023-03-28T10:20:25.253Z,2.05
2023-03-28T10:22:40.816Z,1.42
2023-03-28T10:24:47.021Z,1.73
2023-03-28T10:26:49.705Z,1.40
2023-03-28T10:28:55.655Z,1.30
2023-03-28T10:31:02.932Z,1.50
2023-03-28T10:33:24.199Z,1.45
2023-03-28T10:35:46.104Z,1.73
2023-03-28T10:37:55.995Z,1.50
2023-03-28T10:40:23.191Z,1.58
2023-03-28T10:42:49.705Z,1.50
2023-03-28T10:45:33.452Z,1.25
2023-03-28T10:47:37.032Z,1.58
2023-03-28T10:49:48.042Z,1.30
2023-03-28T10:51:53.885Z,1.63
2023-03-28T10:54:03.713Z,1.42
2023-03-28T10:56:31.130Z,1.52
2023-03-28T10:58:39.357Z,1.15
2023-03-28T11:00:58.998Z,1.55
2023-03-28T11:03:11.543Z,1.35
2023-03-28T11:05:29.573Z,1.15
2023-03-28T11:08:00.266Z,1.05
2023-03-28T11:10:31.955Z,1.45
2023-03-28T11:13:37.938Z,1.45
2023-03-28T11:16:11.851Z,1.38
2023-03-28T11:18:49.694Z,1.50
2023-03-28T11:21:21.464Z,1.48
2023-03-28T11:23:43.094Z,1.42
2023-03-28T11:26:11.198Z,1.33
2023-03-28T11:28:53.915Z,1.10
2023-03-28T11:31:01.354Z,1.52
2023-03-28T11:33:23.169Z,1.42
2023-03-28T11:35:41.687Z,1.50
2023-03-28T11:38:00.017Z,1.50
2023-03-28T11:40:29.492Z,1.42
2023-03-28T11:42:47.925Z,1.27
2023-03-28T11:45:37.395Z,1.85
2023-03-28T11:48:15.927Z,2.63
2023-03-28T11:50:25.259Z,1.50
2023-03-28T11:52:41.327Z,1.48
2023-03-28T11:54:50.245Z,1.10
2023-03-28T11:57:12.883Z,1.30
2023-03-28T12:00:32.170Z,1.50
2023-03-28T12:02:52.018Z,1.10
2023-03-28T12:05:23.304Z,2.15
2023-03-28T12:07:36.376Z,1.88
2023-03-28T12:10:08.704Z,1.90
2023-03-28T12:12:13.201Z,2.50
2023-03-28T12:14:41.862Z,2.72
2023-03-28T12:16:59.307Z,1.80
2023-03-28T12:19:07.192Z,1.70
2023-03-28T12:21:25.731Z,1.77
2023-03-28T12:23:38.640Z,1.55
2023-03-28T12:26:20.037Z,2.17
2023-03-28T12:28:37.616Z,1.85
2023-03-28T12:30:50.075Z,2.00
2023-03-28T12:33:30.053Z,1.73
2023-03-28T12:36:21.514Z,2.00
2023-03-28T12:39:01.916Z,1.65
2023-03-28T12:41:12.235Z,1.58
2023-03-28T12:43:17.796Z,1.67
2023-03-28T12:45:31.175Z,1.55
2023-03-28T12:47:47.243Z,1.90
2023-03-28T12:49:57.897Z,1.73
2023-03-28T12:52:03.883Z,1.88
2023-03-28T12:54:17.453Z,1.95
2023-03-28T12:56:22.353Z,1.67
2023-03-28T12:58:29.334Z,1.58
2023-03-28T13:01:21.340Z,1.70
2023-03-28T13:04:11.818Z,1.60
2023-03-28T13:07:18.510Z,1.40
2023-03-28T13:09:47.528Z,1.60
2023-03-28T13:12:01.649Z,1.50
2023-03-28T13:14:13.877Z,2.35
2023-03-28T13:16:24.677Z,1.60
2023-03-28T13:18:34.421Z,1.60
2023-03-28T13:20:48.624Z,2.30
2023-03-28T13:22:55.419Z,1.67
2023-03-28T13:25:26.570Z,1.77
2023-03-28T13:27:33.442Z,1.83
2023-03-28T13:29:51.486Z,1.45
2023-03-28T13:32:05.896Z,1.98
2023-03-28T13:34:22.178Z,1.95
2023-03-28T13:36:27.817Z,1.75
2023-03-28T13:38:31.094Z,1.60
2023-03-28T13:40:52.248Z,1.73
2023-03-28T13:42:59.816Z,1.70
2023-03-28T13:45:21.969Z,2.05
2023-03-28T13:47:35.629Z,1.50
2023-03-28T13:49:48.200Z,1.52
2023-03-28T13:52:00.418Z,1.77
2023-03-28T13:54:04.116Z,2.10
2023-03-28T13:56:27.722Z,1.90
2023-03-28T13:58:30.678Z,2.00
2023-03-28T14:00:33.372Z,1.50
2023-03-28T14:02:42.444Z,1.65
2023-03-28T14:04:57.649Z,2.17
2023-03-28T14:07:01.914Z,1.98
2023-03-28T14:09:04.786Z,1.85
2023-03-28T14:11:08.074Z,1.73
2023-03-28T14:13:18.741Z,1.63
2023-03-28T14:15:27.503Z,1.55
2023-03-28T14:17:34.351Z,1.63
2023-03-28T14:19:42.298Z,1.85
2023-03-28T14:21:46.629Z,1.30
2023-03-28T14:24:01.540Z,1.30
2023-03-28T14:26:18.757Z,1.58
2023-03-28T14:28:29.464Z,1.70
2023-03-28T14:30:40.398Z,1.50
2023-03-28T14:32:57.344Z,1.40
2023-03-28T14:35:19.878Z,1.67
2023-03-28T14:37:23.969Z,1.60
2023-03-28T14:39:30.835Z,1.70
2023-03-28T14:41:38.032Z,1.50
2023-03-28T14:43:40.905Z,1.33
2023-03-28T14:45:49.209Z,1.85
2023-03-28T14:47:52.177Z,1.50
2023-03-28T14:49:56.299Z,1.40
2023-03-28T14:52:00.779Z,1.60
2023-03-28T14:54:05.448Z,1.58
2023-03-28T14:56:13.407Z,1.40
2023-03-28T14:58:17.488Z,1.80
2023-03-28T15:00:29.008Z,1.48
2023-03-28T15:02:41.455Z,1.60
2023-03-28T15:04:47.535Z,2.33
2023-03-28T15:06:55.899Z,2.20
2023-03-28T15:09:01.155Z,1.90
2023-03-28T15:11:17.613Z,1.80
2023-03-28T15:13:30.174Z,2.45
2023-03-28T15:15:38.234Z,2.60
2023-03-28T15:17:42.240Z,2.85
2023-03-28T15:19:47.180Z,2.40
2023-03-28T15:21:57.461Z,2.47
2023-03-28T15:24:03.630Z,2.25
2023-03-28T15:26:19.410Z,3.20
2023-03-28T15:28:22.885Z,2.92
2023-03-28T15:30:27.444Z,2.80
2023-03-28T15:32:30.743Z,3.08
2023-03-28T15:34:55.877Z,3.33
2023-03-28T15:37:03.861Z,3.05
2023-03-28T15:39:36.533Z,2.58
2023-03-28T15:41:45.249Z,3.42
2023-03-28T15:44:21.191Z,4.05
2023-03-28T15:46:34.289Z,3.35
2023-03-28T15:50:45.592Z,2.42
2023-03-28T15:52:48.600Z,2.60
2023-03-28T15:54:56.996Z,2.38
2023-03-28T15:57:02.983Z,2.47
2023-03-28T15:59:15.574Z,2.28
2023-03-28T16:01:22.996Z,2.58
2023-03-28T16:03:35.012Z,2.35
2023-03-28T16:05:38.418Z,2.97
2023-03-28T16:07:47.572Z,2.70
2023-03-28T16:09:52.597Z,2.30
2023-03-28T16:12:01.763Z,2.30
2023-03-28T16:14:21.101Z,2.42
2023-03-28T16:16:42.461Z,2.53
2023-03-28T16:18:57.690Z,2.67
2023-03-28T16:21:01.944Z,2.78
2023-03-28T16:23:04.741Z,3.60
2023-03-28T16:25:08.685Z,4.22
2023-03-28T16:27:11.380Z,6.63
2023-03-28T16:29:14.649Z,7.78
2023-03-28T16:31:17.456Z,3.88
2023-03-28T16:33:21.158Z,3.38
2023-03-28T16:35:23.890Z,4.65
2023-03-28T16:37:26.767Z,2.72
2023-03-28T16:39:30.294Z,2.60
2023-03-28T16:41:34.007Z,2.88
2023-03-28T16:43:38.318Z,2.50
2023-03-28T16:45:41.059Z,2.80
2023-03-28T16:47:44.170Z,2.33
2023-03-28T16:49:46.927Z,2.30
2023-03-28T16:51:49.765Z,2.55
2023-03-28T16:53:52.733Z,2.38
2023-03-28T16:55:55.815Z,1.95
2023-03-28T16:57:59.255Z,2.03
2023-03-28T17:00:18.400Z,2.40
2023-03-28T17:02:22.048Z,2.00
2023-03-28T17:04:26.417Z,1.83
2023-03-28T17:06:30.174Z,2.08
2023-03-28T17:08:33.774Z,1.90
2023-03-28T17:10:41.989Z,1.88
2023-03-28T17:12:44.574Z,1.55
2023-03-28T17:14:48.129Z,1.58
2023-03-28T17:16:50.972Z,2.20
2023-03-28T17:18:54.304Z,2.08
2023-03-28T17:21:06.808Z,2.10
2023-03-28T17:23:10.403Z,1.73
2023-03-28T17:25:13.330Z,1.52
2023-03-28T17:27:16.780Z,1.63
2023-03-28T17:29:19.896Z,1.52
2023-03-28T17:31:22.729Z,2.50
2023-03-28T17:33:30.913Z,2.05
2023-03-28T17:35:35.068Z,2.17
2023-03-28T17:37:39.201Z,2.20
2023-03-28T17:39:42.660Z,2.30
2023-03-28T17:41:45.405Z,1.98
2023-03-28T17:43:48.276Z,1.80
2023-03-28T17:45:55.093Z,2.20
2023-03-28T17:47:57.875Z,2.00
2023-03-28T17:50:01.993Z,2.47
2023-03-28T17:52:04.876Z,2.30
2023-03-28T17:54:12.534Z,2.10
2023-03-28T17:56:16.970Z,2.20
2023-03-28T17:58:19.898Z,1.73
2023-03-28T18:00:23.267Z,2.58
2023-03-28T18:02:26.535Z,2.03
2023-03-28T18:04:43.634Z,2.03
2023-03-28T18:06:54.406Z,2.13
2023-03-28T18:08:57.670Z,1.88
2023-03-28T18:11:09.409Z,2.10
2023-03-28T18:13:11.991Z,2.00
2023-03-28T18:15:14.717Z,1.88
2023-03-28T18:17:17.496Z,2.10
2023-03-28T18:19:20.888Z,1.50
2023-03-28T18:21:24.797Z,1.73
2023-03-28T18:23:27.701Z,1.30
2023-03-28T18:25:32.900Z,1.75
2023-03-28T18:27:35.694Z,1.75
2023-03-28T18:29:38.979Z,1.80
2023-03-28T18:31:43.221Z,1.73
2023-03-28T18:33:46.659Z,1.58
2023-03-28T18:35:50.078Z,1.90
2023-03-28T18:37:53.969Z,1.65
2023-03-28T18:39:57.516Z,2.28
2023-03-28T18:42:00.570Z,2.03
2023-03-28T18:44:04.626Z,1.98
2023-03-28T18:46:15.671Z,2.25
2023-03-28T18:48:18.989Z,2.03
2023-03-28T18:50:21.851Z,3.20
2023-03-28T18:52:29.484Z,3.67
2023-03-28T18:54:34.025Z,4.75
2023-03-28T18:56:36.778Z,5.80
2023-03-28T18:58:40.279Z,4.95
2023-03-28T19:00:43.542Z,5.75
2023-03-28T19:02:49.619Z,5.75
2023-03-28T19:04:53.445Z,5.82
2023-03-28T19:06:57.034Z,6.30
2023-03-28T19:09:00.184Z,5.90
2023-03-28T19:11:09.413Z,5.35
2023-03-28T19:13:12.334Z,5.93
2023-03-28T19:15:16.018Z,6.25
2023-03-28T19:17:18.614Z,6.75
2023-03-28T19:19:21.514Z,5.75
2023-03-28T19:21:24.234Z,6.90
2023-03-28T19:23:28.289Z,8.05
2023-03-28T19:25:32.453Z,6.82
2023-03-28T19:27:39.053Z,5.65
2023-03-28T19:29:42.074Z,7.20
2023-03-28T19:31:46.274Z,6.32
2023-03-28T19:33:49.375Z,5.22
2023-03-28T19:35:52.946Z,5.25
2023-03-28T19:37:56.607Z,8.10
2023-03-28T19:40:02.291Z,10.25
2023-03-28T19:42:05.060Z,8.77
2023-03-28T19:44:08.025Z,8.40
2023-03-28T19:46:18.747Z,8.63
2023-03-28T19:48:21.473Z,6.13
2023-03-28T19:50:25.275Z,5.30
2023-03-28T19:52:28.045Z,4.40
2023-03-28T19:54:30.807Z,5.35
2023-03-28T19:56:33.978Z,4.22
2023-03-28T19:58:36.438Z,5.57
2023-03-28T20:00:39.054Z,4.80
2023-03-28T20:02:42.712Z,7.07
2023-03-28T20:04:45.401Z,11.70
2023-03-28T20:06:51.957Z,11.82
2023-03-28T20:08:54.978Z,11.75
2023-03-28T20:10:58.906Z,11.52
2023-03-28T20:13:02.126Z,18.45
2023-03-28T20:15:05.965Z,17.83
2023-03-28T20:17:09.811Z,12.20
2023-03-28T20:19:13.679Z,14.07
2023-03-28T20:21:16.929Z,12.73
2023-03-28T20:23:24.188Z,11.32
2023-03-28T20:27:30.080Z,11.77
2023-03-28T20:29:33.324Z,9.23
2023-03-28T20:31:36.060Z,8.07
2023-03-28T20:33:39.430Z,10.00
2023-03-28T20:35:42.198Z,7.43
2023-03-28T20:37:45.126Z,11.82
2023-03-28T20:39:49.412Z,10.00
2023-03-28T20:41:52.875Z,9.32
2023-03-28T20:43:55.793Z,9.82
2023-03-28T20:46:03.793Z,6.65
2023-03-28T20:48:07.791Z,5.90
2023-03-28T20:50:10.984Z,6.85
2023-03-28T20:52:14.007Z,6.70
2023-03-28T20:54:16.952Z,6.50
2023-03-28T20:56:20.513Z,7.05
2023-03-28T20:58:23.970Z,7.10
2023-03-28T21:00:33.951Z,7.10
2023-03-28T21:02:37.020Z,6.13
2023-03-28T21:04:40.666Z,5.90
2023-03-28T21:06:45.475Z,6.53
2023-03-28T21:08:51.190Z,7.35
2023-03-28T21:10:53.811Z,5.93
2023-03-28T21:12:56.743Z,5.45
2023-03-28T21:14:59.435Z,6.38
2023-03-28T21:17:05.454Z,6.30
2023-03-28T21:19:08.433Z,5.90
2023-03-28T21:21:13.004Z,6.30
2023-03-28T21:23:16.318Z,5.75
2023-03-28T21:25:19.793Z,6.18
2023-03-28T21:27:22.487Z,4.75
2023-03-28T21:29:25.513Z,5.05
2023-03-28T21:31:29.705Z,6.65
2023-03-28T21:33:32.425Z,8.43
2023-03-28T21:35:35.992Z,7.30
2023-03-28T21:37:38.643Z,7.38
2023-03-28T21:39:41.307Z,7.95
2023-03-28T21:41:43.954Z,7.30
2023-03-28T21:43:47.820Z,7.78
2023-03-28T21:45:51.428Z,7.70
2023-03-28T21:47:54.457Z,9.00
2023-03-28T21:50:00.770Z,7.90
2023-03-28T21:52:05.110Z,6.68
2023-03-28T21:54:08.279Z,7.15
2023-03-28T21:56:13.350Z,6.10
2023-03-28T21:58:15.957Z,6.20
2023-03-28T22:00:18.467Z,6.03
2023-03-28T22:02:21.033Z,6.15
2023-03-28T22:04:23.799Z,6.28
2023-03-28T22:06:26.658Z,6.32
2023-03-28T22:08:29.308Z,5.40
2023-03-28T22:10:32.338Z,9.25
2023-03-28T22:12:35.356Z,7.95
2023-03-28T22:14:37.860Z,7.78
2023-03-28T22:16:40.386Z,9.98
2023-03-28T22:18:50.487Z,9.05
2023-03-28T22:20:53.630Z,8.05
2023-03-28T22:23:00.783Z,9.15
2023-03-28T22:25:04.796Z,7.88
2023-03-28T22:27:07.715Z,8.02
2023-03-28T22:29:11.016Z,8.68
2023-03-28T22:31:17.457Z,8.52
2023-03-28T22:33:20.162Z,8.73
2023-03-28T22:35:22.824Z,6.78
2023-03-28T22:37:27.068Z,6.13
2023-03-28T22:39:29.937Z,6.63
2023-03-28T22:41:34.206Z,6.07
2023-03-28T22:43:37.902Z,5.75
2023-03-28T22:45:40.780Z,8.07
2023-03-28T22:47:43.534Z,7.45
2023-03-28T22:49:46.313Z,8.25
2023-03-28T22:51:50.067Z,11.07
2023-03-28T22:53:53.259Z,10.02
2023-03-28T22:55:58.252Z,10.65
2023-03-28T22:58:01.301Z,10.13
2023-03-28T23:00:05.539Z,9.85
2023-03-28T23:02:08.552Z,10.77
2023-03-28T23:04:15.636Z,11.82
2023-03-28T23:06:18.237Z,10.35
2023-03-28T23:08:21.357Z,11.20
2023-03-28T23:10:24.902Z,16.08
2023-03-28T23:12:27.437Z,14.43
2023-03-28T23:14:30.557Z,17.70
2023-03-28T23:16:33.290Z,15.45
2023-03-28T23:18:35.645Z,18.30
2023-03-28T23:20:38.427Z,16.95
2023-03-28T23:22:43.675Z,16.20
2023-03-28T23:24:52.039Z,13.27
2023-03-28T23:26:55.961Z,13.25
2023-03-28T23:28:58.794Z,15.85
2023-03-28T23:31:01.683Z,13.82
2023-03-28T23:33:05.129Z,15.73
2023-03-28T23:35:08.645Z,15.10
2023-03-28T23:37:11.033Z,21.67
2023-03-28T23:39:14.910Z,26.05
2023-03-28T23:41:17.912Z,26.05
2023-03-28T23:43:20.567Z,22.95
2023-03-28T23:45:23.582Z,24.52
2023-03-28T23:47:26.483Z,24.75
2023-03-28T23:49:29.259Z,22.80
2023-03-28T23:51:31.702Z,23.60
2023-03-28T23:53:34.265Z,20.77
2023-03-28T23:55:38.212Z,19.25
2023-03-28T23:57:41.744Z,18.35
2023-03-28T23:59:44.627Z,23.25
